Terminal Aerodrome Forecast
Issued by NWS

Home | Current Version | Previous Version | Text Only | Print | Product List | Glossary On
Versions: 1 2 3 4 5 6 7 8 9 10 11 12 13 14 15 16 17
000
FTUS43 KBIS 211100
TAFDIK
TAF
KDIK 211136Z 2112/2212 17010KT P6SM SCT080
     FM211700 19009KT P6SM SCT030 BKN080
     FM212000 17012KT P6SM -SHRA BKN025 OVC050
     FM220300 VRB05KT P6SM -SN OVC020
     FM220700 33014KT 3SM -SN OVC012=

USA.gov is the U.S. government's official web portal to all federal, state and local government web resources and services.